Terminal Aerodrome Forecast
Issued by NWS

Home | Current Version | Previous Version | Text Only | Print | Product List | Glossary On
Versions: 1 2 3 4 5 6 7 8 9 10 11 12 13 14 15 16 17 18 19 20 21 22
000
FTUS43 KTOP 030600 AAA
TAFMHK
TAF AMD
KMHK 030637Z 0307/0406 14005KT P6SM FEW100
     FM030700 16005KT P6SM VCTS SCT025 BKN070CB
      TEMPO 0307/0309 4SM TSRA BR SCT025 BKN050 OVC080CB
     FM031200 17013KT P6SM SCT020 BKN150
     FM031600 20018G24KT P6SM FEW050=

USA.gov is the U.S. government's official web portal to all federal, state and local government web resources and services.